Time;durP1;ratioP1;P1;durP2;ratioP2;P2;SDS_P1;SDS_P2;PMS_P1;PMS_P2;Temp;Humidity;BMP_temperature;BMP_pressure;BME280_temperature;BME280_humidity;BME280_pressure;Samples;Min_cycle;Max_cycle;Signal;HPM_P1;HPM_P2
2022/05/12 00:00:11;;;;;;;;;;;;;;;18.67;51.85;99653.06;5382042;26;34335;-90
2022/05/12 00:02:40;;;;;;;;;;;;;;;18.78;51.45;99646.50;5382448;26;34158;-90
2022/05/12 00:05:09;;;;;;;;;;;;;;;18.87;51.05;99649.53;5381166;26;34134;-90
2022/05/12 00:07:38;;;;;;;;;;;;;;;18.84;51.29;99651.44;5382176;26;34219;-90
2022/05/12 00:10:09;;;;;;;;;;;;;;;18.88;51.45;99655.63;5385169;26;34316;-90
2022/05/12 00:12:38;;;;;;;;;;;;;;;18.70;51.76;99642.41;5387991;26;32721;-90
2022/05/12 00:15:08;;;;;;;;;;;;;;;18.73;51.78;99650.16;5382627;26;33933;-91
2022/05/12 00:17:37;;;;;;;;;;;;;;;18.71;51.60;99638.84;5382595;26;35024;-90
2022/05/12 00:20:08;;;;;;;;;;;;;;;18.57;52.12;99645.69;5383344;26;34763;-90
2022/05/12 00:22:37;;;;;;;;;;;;;;;18.56;52.17;99642.22;5382255;26;34215;-90
2022/05/12 00:25:09;;;;;;;;;;;;;;;18.48;52.26;99650.47;5387887;26;33994;-90
2022/05/12 00:27:38;;;;;;;;;;;;;;;18.43;52.22;99641.06;5382158;26;34900;-91
2022/05/12 00:30:09;;;;;;;;;;;;;;;18.59;51.89;99631.56;5382081;26;34013;-90
2022/05/12 00:32:37;;;;;;;;;;;;;;;18.51;52.39;99637.19;5381654;26;32388;-90
2022/05/12 00:35:10;;;;;;;;;;;;;;;18.44;52.53;99640.16;5381905;26;34156;-90
2022/05/12 00:37:40;;;;;;;;;;;;;;;18.47;52.31;99635.59;5387589;26;34560;-90
2022/05/12 00:40:09;;;;;;;;;;;;;;;18.33;52.98;99636.22;5385169;26;34220;-91
2022/05/12 00:42:37;;;;;;;;;;;;;;;18.48;52.50;99636.44;5381618;26;33034;-90
2022/05/12 00:45:06;;;;;;;;;;;;;;;18.39;53.15;99629.88;5381631;26;33331;-91
2022/05/12 00:47:35;;;;;;;;;;;;;;;18.43;53.06;99636.66;5381793;26;33780;-91
2022/05/12 00:50:04;;;;;;;;;;;;;;;18.22;53.46;99635.00;5381464;26;33938;-91
2022/05/12 00:52:34;;;;;;;;;;;;;;;18.18;53.78;99634.31;5387490;26;33430;-91
2022/05/12 00:55:06;;;;;;;;;;;;;;;18.29;53.54;99632.06;5381450;26;34804;-91
2022/05/12 00:57:36;;;;;;;;;;;;;;;18.04;54.32;99631.47;5380994;26;33932;-91
2022/05/12 01:00:08;;;;;;;;;;;;;;;18.21;53.90;99633.31;5381434;26;34023;-91
2022/05/12 01:02:36;;;;;;;;;;;;;;;18.18;54.14;99634.31;5382560;26;33739;-90
2022/05/12 01:05:05;;;;;;;;;;;;;;;18.22;53.92;99630.63;5387572;26;33902;-90
2022/05/12 01:07:36;;;;;;;;;;;;;;;18.25;53.71;99625.25;5380933;26;35081;-90
2022/05/12 01:10:05;;;;;;;;;;;;;;;17.91;54.74;99631.16;5381123;26;35117;-91
2022/05/12 01:12:33;;;;;;;;;;;;;;;17.83;55.05;99639.38;5361550;26;33125;-90
2022/05/12 01:15:03;;;;;;;;;;;;;;;17.88;55.22;99639.19;5382370;26;33243;-90
2022/05/12 01:17:32;;;;;;;;;;;;;;;17.70;55.49;99625.88;5386714;26;34222;-90
2022/05/12 01:20:02;;;;;;;;;;;;;;;17.80;55.48;99636.88;5385361;26;34098;-91
2022/05/12 01:22:33;;;;;;;;;;;;;;;17.77;55.50;99634.34;5381633;26;34042;-90
2022/05/12 01:25:09;;;;;;;;;;;;;;;17.84;55.39;99640.22;5360585;26;32807;-90
2022/05/12 01:27:42;;;;;;;;;;;;;;;17.90;55.21;99634.69;5380497;26;35138;-90
2022/05/12 01:30:11;;;;;;;;;;;;;;;17.91;55.35;99632.00;5381046;26;35633;-90
2022/05/12 01:32:40;;;;;;;;;;;;;;;17.76;55.89;99626.53;5387301;26;33835;-90
2022/05/12 01:35:08;;;;;;;;;;;;;;;17.87;55.49;99632.22;5381389;26;34730;-91
2022/05/12 01:37:38;;;;;;;;;;;;;;;17.85;55.71;99634.87;5382336;26;35111;-90
2022/05/12 01:40:09;;;;;;;;;;;;;;;18.13;54.92;99631.06;5380329;26;33932;-90
2022/05/12 01:42:38;;;;;;;;;;;;;;;18.01;55.16;99635.06;5381916;26;32663;-91
2022/05/12 01:45:07;;;;;;;;;;;;;;;17.82;55.70;99632.41;5386835;26;34369;-90
2022/05/12 01:47:36;;;;;;;;;;;;;;;17.92;55.62;99636.31;5384093;26;33982;-90
2022/05/12 01:50:06;;;;;;;;;;;;;;;18.04;55.38;99631.47;5380739;26;33482;-90
2022/05/12 01:52:34;;;;;;;;;;;;;;;17.93;55.63;99639.81;5381231;26;33428;-90
2022/05/12 01:55:03;;;;;;;;;;;;;;;17.84;56.02;99641.06;5381132;26;34110;-91
2022/05/12 01:57:33;;;;;;;;;;;;;;;17.87;55.85;99635.69;5381976;26;34756;-90
2022/05/12 02:00:02;;;;;;;;;;;;;;;17.87;55.96;99624.34;5387354;26;34248;-91
2022/05/12 02:02:38;;;;;;;;;;;;;;;17.88;56.00;99626.06;5381673;26;33546;-91
2022/05/12 02:05:09;;;;;;;;;;;;;;;17.83;56.07;99623.62;5381587;26;33102;-90
2022/05/12 02:07:39;;;;;;;;;;;;;;;17.91;55.86;99621.50;5381956;26;34647;-91
2022/05/12 02:10:08;;;;;;;;;;;;;;;17.86;56.17;99620.87;5381483;26;34881;-90
2022/05/12 02:12:42;;;;;;;;;;;;;;;17.98;55.70;99608.97;5386865;26;32467;-91
2022/05/12 02:15:11;;;;;;;;;;;;;;;17.81;56.54;99604.47;5359378;26;33063;-90
2022/05/12 02:17:40;;;;;;;;;;;;;;;17.61;56.94;99604.44;5381104;26;35004;-90
2022/05/12 02:20:10;;;;;;;;;;;;;;;17.59;57.16;99608.91;5380194;26;33682;-90
2022/05/12 02:22:38;;;;;;;;;;;;;;;18.15;55.32;99608.22;5381182;26;32744;-90
2022/05/12 02:25:07;;;;;;;;;;;;;;;18.10;55.56;99605.78;5381260;26;34719;-90
2022/05/12 02:27:42;;;;;;;;;;;;;;;17.72;56.91;99607.47;5387188;26;33497;-90
2022/05/12 02:30:12;;;;;;;;;;;;;;;18.14;55.35;99606.50;5380459;26;34416;-90
2022/05/12 02:32:40;;;;;;;;;;;;;;;18.19;55.13;99609.75;5380255;26;33698;-90
2022/05/12 02:35:09;;;;;;;;;;;;;;;18.27;55.08;99612.91;5380549;26;33534;-90
2022/05/12 02:37:42;;;;;;;;;;;;;;;18.07;56.15;99610.31;5381464;26;34276;-90
2022/05/12 02:40:11;;;;;;;;;;;;;;;18.22;55.21;99614.88;5387223;26;34191;-90
2022/05/12 02:42:41;;;;;;;;;;;;;;;18.06;55.77;99617.34;5381264;26;34083;-91
2022/05/12 02:45:10;;;;;;;;;;;;;;;18.01;56.27;99618.47;5380742;26;34273;-90
2022/05/12 02:47:39;;;;;;;;;;;;;;;18.15;55.51;99617.88;5381118;26;33408;-90
2022/05/12 02:50:09;;;;;;;;;;;;;;;18.14;55.74;99614.38;5382902;26;34112;-91
2022/05/12 02:52:37;;;;;;;;;;;;;;;18.07;55.57;99613.81;5385857;26;32986;-90
2022/05/12 02:55:07;;;;;;;;;;;;;;;18.02;56.09;99612.28;5384863;26;34011;-91
2022/05/12 02:57:36;;;;;;;;;;;;;;;18.05;55.72;99613.03;5380666;26;34943;-90
2022/05/12 03:00:09;;;;;;;;;;;;;;;17.98;56.07;99618.63;5381207;26;33728;-90
2022/05/12 03:02:38;;;;;;;;;;;;;;;17.91;56.10;99624.12;5381200;26;33884;-90
2022/05/12 03:05:07;;;;;;;;;;;;;;;17.92;56.36;99620.56;5381254;26;33495;-91
2022/05/12 03:07:36;;;;;;;;;;;;;;;17.84;56.58;99627.94;5387192;26;35016;-90
2022/05/12 03:10:05;;;;;;;;;;;;;;;17.63;57.17;99623.59;5384224;26;34509;-91
2022/05/12 03:12:33;;;;;;;;;;;;;;;17.79;56.65;99635.16;5380404;26;33328;-90
2022/05/12 03:15:03;;;;;;;;;;;;;;;17.67;56.91;99638.31;5380402;26;34219;-91
2022/05/12 03:17:34;;;;;;;;;;;;;;;17.61;57.04;99638.56;5380466;26;33853;-90
2022/05/12 03:20:02;;;;;;;;;;;;;;;17.65;57.00;99642.75;5386921;26;34524;-90
2022/05/12 03:22:31;;;;;;;;;;;;;;;17.76;56.61;99645.78;5380635;26;33535;-91
2022/05/12 03:25:00;;;;;;;;;;;;;;;17.69;56.76;99646.97;5380715;26;33819;-90
2022/05/12 03:27:28;;;;;;;;;;;;;;;17.55;57.52;99641.47;5382929;26;33920;-90
2022/05/12 03:29:57;;;;;;;;;;;;;;;17.36;57.79;99638.75;5380984;26;33850;-90
2022/05/12 03:32:25;;;;;;;;;;;;;;;17.40;57.96;99638.56;5386275;26;34072;-90
2022/05/12 03:34:55;;;;;;;;;;;;;;;17.41;57.91;99635.00;5380779;26;34106;-90
2022/05/12 03:37:23;;;;;;;;;;;;;;;17.44;57.76;99636.66;5380123;26;33984;-90
2022/05/12 03:39:52;;;;;;;;;;;;;;;17.53;57.59;99635.41;5380447;26;34472;-89
2022/05/12 03:42:21;;;;;;;;;;;;;;;17.56;57.52;99641.38;5380640;26;32820;-90
2022/05/12 03:44:50;;;;;;;;;;;;;;;17.55;57.55;99637.06;5382444;26;34921;-90
2022/05/12 03:47:24;;;;;;;;;;;;;;;17.67;57.42;99638.31;5387853;26;35092;-90
2022/05/12 03:49:53;;;;;;;;;;;;;;;17.55;58.09;99638.84;5361312;26;33260;-90
2022/05/12 03:52:23;;;;;;;;;;;;;;;17.68;57.68;99651.34;5381813;26;33536;-89
2022/05/12 03:54:52;;;;;;;;;;;;;;;17.66;57.98;99637.47;5382254;26;33855;-89
2022/05/12 03:57:21;;;;;;;;;;;;;;;17.70;58.12;99643.41;5382236;26;34207;-89
2022/05/12 03:59:50;;;;;;;;;;;;;;;17.65;58.49;99642.75;5387204;26;33966;-88
2022/05/12 04:02:19;;;;;;;;;;;;;;;17.66;58.42;99645.31;5381719;26;33199;-89
2022/05/12 04:04:48;;;;;;;;;;;;;;;17.71;58.68;99645.13;5381873;26;34872;-89
2022/05/12 04:07:17;;;;;;;;;;;;;;;17.57;59.39;99650.13;5361235;26;33284;-89
2022/05/12 04:09:47;;;;;;;;;;;;;;;17.85;58.93;99658.50;5381397;26;34199;-89
2022/05/12 04:12:17;;;;;;;;;;;;;;;18.05;58.05;99656.78;5388369;26;33591;-89
2022/05/12 04:14:45;;;;;;;;;;;;;;;17.95;58.80;99660.72;5381819;26;33952;-89
2022/05/12 04:17:15;;;;;;;;;;;;;;;18.07;58.12;99660.19;5381639;26;34264;-89
2022/05/12 04:19:44;;;;;;;;;;;;;;;18.22;57.20;99656.91;5381484;26;33798;-89
2022/05/12 04:22:14;;;;;;;;;;;;;;;18.42;56.57;99655.97;5382125;26;34188;-89
2022/05/12 04:24:42;;;;;;;;;;;;;;;18.31;57.04;99656.50;5382327;26;33631;-89
2022/05/12 04:27:12;;;;;;;;;;;;;;;18.32;56.32;99657.34;5388262;26;34037;-89
2022/05/12 04:29:42;;;;;;;;;;;;;;;18.33;56.57;99659.88;5381327;26;33927;-90
2022/05/12 04:32:11;;;;;;;;;;;;;;;18.48;56.83;99673.22;5381766;26;33046;-89
2022/05/12 04:37:26;;;;;;;;;;;;;;;18.65;56.14;99675.06;5381202;26;34333;-89
2022/05/12 04:39:54;;;;;;;;;;;;;;;18.89;56.10;99668.69;5386698;26;33593;-90
2022/05/12 04:42:24;;;;;;;;;;;;;;;19.59;53.86;99676.66;5362360;26;32439;-90
2022/05/12 04:44:53;;;;;;;;;;;;;;;20.00;52.87;99677.19;5381305;26;34987;-90
2022/05/12 04:47:21;;;;;;;;;;;;;;;20.58;50.96;99677.69;5381512;26;33967;-90
2022/05/12 04:49:50;;;;;;;;;;;;;;;21.00;50.54;99679.75;5381118;26;34243;-89
2022/05/12 04:52:23;;;;;;;;;;;;;;;21.83;47.34;99682.03;5382660;26;32894;-91
2022/05/12 05:54:31;;;;;;;;;;;;;;;25.56;36.63;99688.72;5408955;26;20034;-91
2022/05/12 05:57:00;;;;;;;;;;;;;;;25.68;37.14;99702.91;5405455;26;33898;-91
2022/05/12 05:59:28;;;;;;;;;;;;;;;25.55;37.27;99701.16;5410325;26;34095;-90
2022/05/12 06:01:57;;;;;;;;;;;;;;;25.54;37.22;99696.84;5403970;26;34680;-91
2022/05/12 06:04:26;;;;;;;;;;;;;;;25.52;37.14;99704.06;5404572;26;34106;-91
2022/05/12 06:06:54;;;;;;;;;;;;;;;25.45;37.45;99700.19;5404531;26;33924;-91
2022/05/12 06:09:23;;;;;;;;;;;;;;;25.10;38.42;99700.97;5404405;26;34603;-91
2022/05/12 06:11:53;;;;;;;;;;;;;;;24.78;39.36;99702.44;5410685;26;34711;-91
2022/05/12 06:14:21;;;;;;;;;;;;;;;24.87;39.44;99709.75;5404973;26;33067;-92
2022/05/12 06:16:50;;;;;;;;;;;;;;;24.44;40.38;99713.63;5406692;26;33907;-90
2022/05/12 06:19:19;;;;;;;;;;;;;;;24.43;40.37;99706.63;5404306;26;33757;-91
2022/05/12 06:21:47;;;;;;;;;;;;;;;24.20;41.16;99710.87;5404393;26;35022;-90
2022/05/12 06:24:16;;;;;;;;;;;;;;;23.87;41.94;99699.94;5410612;26;32938;-90
2022/05/12 06:26:48;;;;;;;;;;;;;;;23.89;41.09;99701.53;5410012;26;33288;-90
2022/05/12 06:29:18;;;;;;;;;;;;;;;23.80;41.76;99697.72;5404338;26;34096;-90
2022/05/12 06:31:47;;;;;;;;;;;;;;;23.91;41.45;99704.09;5403488;26;34351;-89
2022/05/12 06:34:16;;;;;;;;;;;;;;;23.74;42.12;99710.53;5404008;26;35196;-89
2022/05/12 06:36:45;;;;;;;;;;;;;;;23.78;42.32;99704.09;5403980;26;34067;-89
2022/05/12 06:39:14;;;;;;;;;;;;;;;23.74;42.36;99703.44;5409218;26;34173;-89
2022/05/12 06:41:43;;;;;;;;;;;;;;;23.83;42.50;99708.09;5403979;26;34370;-90
2022/05/12 06:44:11;;;;;;;;;;;;;;;23.57;42.99;99703.69;5404016;26;33140;-89
2022/05/12 06:46:44;;;;;;;;;;;;;;;23.77;43.29;99708.50;5403988;26;34021;-89
2022/05/12 06:49:13;;;;;;;;;;;;;;;23.61;42.98;99708.69;5403293;26;34746;-89
2022/05/12 06:51:43;;;;;;;;;;;;;;;23.66;42.62;99711.03;5389372;26;33367;-89
2022/05/12 06:54:11;;;;;;;;;;;;;;;23.68;42.00;99714.41;5403448;26;33996;-89
2022/05/12 06:56:40;;;;;;;;;;;;;;;23.81;42.12;99717.13;5404091;26;33859;-89
2022/05/12 06:59:09;;;;;;;;;;;;;;;23.78;42.25;99715.53;5402164;26;35047;-88
2022/05/12 07:01:37;;;;;;;;;;;;;;;23.75;42.54;99721.03;5403565;26;33592;-89
2022/05/12 07:04:12;;;;;;;;;;;;;;;23.76;42.43;99712.13;5409143;26;33287;-89
2022/05/12 07:06:40;;;;;;;;;;;;;;;23.82;42.63;99706.44;5409916;26;34283;-89
2022/05/12 07:09:09;;;;;;;;;;;;;;;23.80;43.60;99710.97;5404015;26;34294;-90
2022/05/12 07:11:37;;;;;;;;;;;;;;;23.97;43.17;99706.31;5404766;26;35005;-90
2022/05/12 07:14:06;;;;;;;;;;;;;;;24.02;41.81;99710.34;5403932;26;33401;-89
2022/05/12 07:16:34;;;;;;;;;;;;;;;24.17;42.45;99711.09;5403577;26;34868;-89
2022/05/12 07:19:03;;;;;;;;;;;;;;;24.13;41.66;99706.09;5409988;26;34410;-90
2022/05/12 07:27:05;;;;;;;;;;;;;;;24.43;41.67;99708.44;5405356;26;33575;-90
2022/05/12 07:29:34;;;;;;;;;;;;;;;24.56;43.09;99701.31;5405333;26;34270;-90
2022/05/12 07:32:03;;;;;;;;;;;;;;;24.62;41.89;99713.28;5383017;26;34097;-91
2022/05/12 07:34:32;;;;;;;;;;;;;;;24.74;40.92;99706.25;5407642;26;33300;-90
2022/05/12 07:37:02;;;;;;;;;;;;;;;24.70;41.12;99706.50;5404283;26;34186;-90
2022/05/12 07:39:30;;;;;;;;;;;;;;;24.77;41.41;99708.72;5404305;26;34293;-90
2022/05/12 07:42:00;;;;;;;;;;;;;;;24.91;40.49;99705.88;5403147;26;34318;-89
2022/05/12 07:44:34;;;;;;;;;;;;;;;24.96;40.95;99710.87;5404387;26;33727;-91
2022/05/12 07:47:03;;;;;;;;;;;;;;;25.10;40.31;99700.97;5410278;26;33366;-91
2022/05/12 07:49:35;;;;;;;;;;;;;;;25.34;40.17;99700.97;5407089;26;33719;-91
2022/05/12 07:52:06;;;;;;;;;;;;;;;25.34;40.23;99694.81;5400066;26;33346;-91
2022/05/12 07:54:35;;;;;;;;;;;;;;;25.39;40.80;99697.97;5404771;26;33779;-91
2022/05/12 07:57:03;;;;;;;;;;;;;;;25.63;40.31;99705.06;5405414;26;34299;-91
2022/05/12 07:59:34;;;;;;;;;;;;;;;25.73;38.65;99698.94;5404866;26;34967;-91
2022/05/12 08:02:03;;;;;;;;;;;;;;;25.81;39.59;99701.00;5410317;26;34199;-90
2022/05/12 08:04:34;;;;;;;;;;;;;;;25.85;39.60;99705.09;5404544;26;33154;-91
2022/05/12 08:07:03;;;;;;;;;;;;;;;25.93;39.88;99705.41;5404407;26;33637;-90
2022/05/12 08:09:33;;;;;;;;;;;;;;;25.99;40.19;99704.09;5404588;26;34952;-91
2022/05/12 08:12:02;;;;;;;;;;;;;;;26.04;39.86;99711.72;5404976;26;33294;-91
2022/05/12 08:14:30;;;;;;;;;;;;;;;26.20;38.46;99711.37;5409724;26;33883;-91
2022/05/12 08:16:59;;;;;;;;;;;;;;;26.31;39.41;99714.91;5404531;26;34608;-91
2022/05/12 08:19:29;;;;;;;;;;;;;;;26.33;38.81;99712.09;5403965;26;33860;-91
2022/05/12 08:21:57;;;;;;;;;;;;;;;26.62;36.40;99719.63;5402901;26;33796;-91
2022/05/12 08:24:26;;;;;;;;;;;;;;;26.68;38.05;99711.16;5403431;26;33343;-91
2022/05/12 08:26:56;;;;;;;;;;;;;;;26.48;37.73;99710.03;5409955;26;34915;-91
2022/05/12 08:29:24;;;;;;;;;;;;;;;26.73;38.39;99708.97;5407431;26;35018;-91
2022/05/12 08:31:53;;;;;;;;;;;;;;;26.88;38.00;99712.22;5404069;26;33970;-90
2022/05/12 08:34:21;;;;;;;;;;;;;;;27.00;37.02;99711.22;5403300;26;33531;-90
2022/05/12 08:36:50;;;;;;;;;;;;;;;27.01;37.62;99708.44;5383295;26;33345;-92
2022/05/12 08:39:18;;;;;;;;;;;;;;;26.88;37.28;99712.22;5403524;26;34326;-92
2022/05/12 08:41:48;;;;;;;;;;;;;;;27.20;37.75;99705.13;5409623;26;35368;-90
2022/05/12 08:44:19;;;;;;;;;;;;;;;27.30;36.83;99707.03;5403688;26;33269;-91
2022/05/12 08:46:54;;;;;;;;;;;;;;;27.47;36.96;99709.16;5404485;26;33768;-91
2022/05/12 08:49:24;;;;;;;;;;;;;;;27.59;35.72;99713.47;5403734;26;33787;-91
2022/05/12 08:51:53;;;;;;;;;;;;;;;27.51;35.95;99709.75;5403595;26;33912;-90
2022/05/12 08:54:23;;;;;;;;;;;;;;;27.57;36.06;99718.09;5408585;26;33333;-91
2022/05/12 08:56:53;;;;;;;;;;;;;;;27.78;35.28;99722.56;5402133;26;33709;-90
2022/05/12 08:59:22;;;;;;;;;;;;;;;27.86;34.96;99714.81;5402385;26;33698;-90
2022/05/12 09:01:54;;;;;;;;;;;;;;;27.93;35.84;99718.63;5401971;26;34376;-90
2022/05/12 09:04:30;;;;;;;;;;;;;;;28.01;34.52;99713.50;5405404;26;33100;-91
2022/05/12 09:07:01;;;;;;;;;;;;;;;28.07;35.30;99723.62;5402376;26;34227;-91
2022/05/12 09:09:32;;;;;;;;;;;;;;;28.00;34.49;99711.78;5407926;26;33891;-91
2022/05/12 09:12:03;;;;;;;;;;;;;;;28.01;35.41;99712.66;5402140;26;33894;-92
2022/05/12 09:14:35;;;;;;;;;;;;;;;28.20;35.64;99720.75;5402150;26;33199;-92
2022/05/12 09:17:10;;;;;;;;;;;;;;;28.01;35.85;99718.00;5401482;26;33923;-91
2022/05/12 09:19:38;;;;;;;;;;;;;;;28.07;35.42;99722.78;5402308;26;34346;-91
2022/05/12 09:22:07;;;;;;;;;;;;;;;28.30;35.69;99718.16;5407898;26;34159;-91
2022/05/12 09:24:36;;;;;;;;;;;;;;;28.43;36.16;99718.75;5405898;26;33297;-91
2022/05/12 09:27:08;;;;;;;;;;;;;;;28.59;35.52;99728.13;5402486;26;33693;-91
2022/05/12 09:29:44;;;;;;;;;;;;;;;28.30;35.58;99731.47;5401825;26;34006;-90
2022/05/12 09:32:48;;;;;;;;;;;;;;;28.40;35.69;99723.53;5389726;26;33603;-91
2022/05/12 09:35:25;;;;;;;;;;;;;;;28.57;34.35;99730.09;5399302;26;34179;-91
2022/05/12 09:37:54;;;;;;;;;;;;;;;28.50;34.92;99717.25;5399645;26;34169;-91
2022/05/12 09:40:24;;;;;;;;;;;;;;;28.93;35.24;99720.63;5405876;26;34677;-92
2022/05/12 09:42:53;;;;;;;;;;;;;;;28.99;34.42;99719.22;5399559;26;33633;-92
2022/05/12 09:45:24;;;;;;;;;;;;;;;29.19;33.80;99723.66;5400579;26;32941;-92
2022/05/12 09:48:09;;;;;;;;;;;;;;;29.12;33.50;99726.03;5398222;26;33796;-91
2022/05/12 09:50:44;;;;;;;;;;;;;;;29.28;33.73;99713.97;5395749;26;33937;-91
2022/05/12 09:53:13;;;;;;;;;;;;;;;29.44;33.33;99716.91;5399795;26;33762;-91
2022/05/12 09:55:42;;;;;;;;;;;;;;;29.62;33.73;99711.69;5376341;26;780368;-92
2022/05/12 09:58:26;;;;;;;;;;;;;;;29.67;33.07;99713.97;5403835;26;34874;-91
2022/05/12 10:01:07;;;;;;;;;;;;;;;29.62;32.89;99711.69;5396030;26;34108;-91
2022/05/12 10:09:11;;;;;;;;;;;;;;;29.78;33.43;99706.66;5402434;26;34261;-91
2022/05/12 10:11:42;;;;;;;;;;;;;;;29.94;33.22;99705.22;5402354;26;34254;-92
2022/05/12 10:14:15;;;;;;;;;;;;;;;30.07;33.31;99705.75;5407793;26;34375;-91
2022/05/12 10:16:48;;;;;;;;;;;;;;;30.02;31.73;99697.31;5400662;26;33622;-91
2022/05/12 10:32:05;;;;;;;;;;;;;;;30.79;31.27;99677.41;5395293;26;20000;-90
2022/05/12 10:34:44;;;;;;;;;;;;;;;30.92;30.11;99685.09;5381761;26;34200;-90
2022/05/12 10:37:53;;;;;;;;;;;;;;;30.83;30.26;99681.53;5378540;26;37662;-92
2022/05/12 11:44:46;;;;;;;;;;;;;;;31.91;25.71;99643.06;5324756;26;19986;-91
2022/05/12 11:47:40;;;;;;;;;;;;;;;32.23;25.50;99637.03;5332705;26;34544;-92
2022/05/12 11:50:14;;;;;;;;;;;;;;;32.43;25.51;99629.59;5337923;26;33624;-91
2022/05/12 11:52:44;;;;;;;;;;;;;;;32.71;25.37;99630.19;5330511;26;33492;-91
2022/05/12 11:55:24;;;;;;;;;;;;;;;33.04;24.08;99628.41;5332225;26;33891;-92
2022/05/12 11:57:57;;;;;;;;;;;;;;;33.02;24.86;99633.09;5333546;26;34087;-92
2022/05/12 12:00:44;;;;;;;;;;;;;;;33.13;24.64;99622.06;5331769;26;34298;-93
2022/05/12 12:03:35;;;;;;;;;;;;;;;33.43;24.68;99630.44;5311415;26;32408;-92
2022/05/12 12:06:05;;;;;;;;;;;;;;;33.30;24.42;99624.75;5354492;26;33878;-93
2022/05/12 12:08:43;;;;;;;;;;;;;;;32.99;23.50;99617.31;5387414;26;34361;-94
2022/05/12 12:11:26;;;;;;;;;;;;;;;33.24;23.58;99617.34;5382438;26;34991;-93
2022/05/12 12:13:55;;;;;;;;;;;;;;;32.95;22.00;99627.53;5381670;26;34708;-91
2022/05/12 12:16:24;;;;;;;;;;;;;;;32.82;22.31;99623.66;5381026;26;33314;-93
2022/05/12 12:18:58;;;;;;;;;;;;;;;32.50;21.84;99626.13;5382582;26;33919;-92
2022/05/12 12:21:48;;;;;;;;;;;;;;;32.87;22.09;99616.78;5382274;26;34918;-92
2022/05/12 12:27:35;;;;;;;;;;;;;;;32.70;21.85;99612.41;5377554;26;33186;-92
2022/05/12 12:30:23;;;;;;;;;;;;;;;32.88;21.52;99610.38;5387487;26;33551;-92
2022/05/12 12:33:08;;;;;;;;;;;;;;;32.96;21.01;99612.28;5383896;26;34210;-92
2022/05/12 12:35:50;;;;;;;;;;;;;;;33.11;22.26;99609.78;5379903;26;34695;-92
2022/05/12 12:38:33;;;;;;;;;;;;;;;33.53;21.37;99619.50;5379066;26;33634;-92
2022/05/12 12:41:05;;;;;;;;;;;;;;;33.01;21.49;99615.28;5357537;26;34326;-94
2022/05/12 12:43:35;;;;;;;;;;;;;;;33.34;21.18;99612.63;5356492;26;33720;-92
2022/05/12 12:46:13;;;;;;;;;;;;;;;33.44;21.66;99604.37;5357777;26;33980;-92
2022/05/12 12:48:47;;;;;;;;;;;;;;;33.54;21.37;99597.81;5360178;26;33286;-93
2022/05/12 12:51:31;;;;;;;;;;;;;;;33.53;19.09;99597.97;5362561;26;34502;-92
2022/05/12 12:57:11;;;;;;;;;;;;;;;33.84;19.89;99590.03;5356727;26;34508;-93
2022/05/12 12:59:41;;;;;;;;;;;;;;;33.86;19.20;99595.25;5357244;26;34103;-92
2022/05/12 13:02:23;;;;;;;;;;;;;;;33.92;19.15;99590.00;5359060;26;33925;-91
2022/05/12 13:04:54;;;;;;;;;;;;;;;34.38;19.47;99583.94;5337134;26;32986;-93
2022/05/12 13:07:27;;;;;;;;;;;;;;;34.82;18.91;99581.50;5355395;26;34532;-92
2022/05/12 13:09:57;;;;;;;;;;;;;;;34.81;19.15;99584.38;5340666;26;33915;-93
2022/05/12 13:12:28;;;;;;;;;;;;;;;34.86;20.28;99575.75;5334871;26;34487;-93
2022/05/12 13:15:00;;;;;;;;;;;;;;;34.67;19.15;99575.19;5354854;26;33622;-94
2022/05/12 13:17:37;;;;;;;;;;;;;;;34.24;20.37;99574.78;5338260;26;34295;-94
2022/05/12 13:20:10;;;;;;;;;;;;;;;33.84;19.79;99579.28;5359456;26;33403;-93
2022/05/12 13:22:46;;;;;;;;;;;;;;;33.76;20.52;99576.63;5337547;26;34407;-94
2022/05/12 13:28:54;;;;;;;;;;;;;;;34.29;20.28;99580.47;5313977;27;35520;-95
2022/05/12 13:31:46;;;;;;;;;;;;;;;33.82;19.87;99575.06;5314000;27;33431;-93
2022/05/12 13:37:38;;;;;;;;;;;;;;;33.75;20.93;99585.69;5266434;27;33994;-94
2022/05/12 13:43:53;;;;;;;;;;;;;;;34.28;20.69;99564.47;5268468;27;35934;-92
2022/05/12 13:46:26;;;;;;;;;;;;;;;34.37;20.85;99571.50;5269859;27;33696;-93
2022/05/12 13:48:58;;;;;;;;;;;;;;;34.75;20.47;99564.38;5265941;27;34254;-91
2022/05/12 13:51:42;;;;;;;;;;;;;;;35.02;20.26;99562.97;5263454;27;34906;-95
2022/05/12 13:54:39;;;;;;;;;;;;;;;34.71;19.39;99544.19;5246552;27;32877;-92
2022/05/12 13:57:19;;;;;;;;;;;;;;;34.78;20.46;99553.25;5265285;27;34509;-93
2022/05/12 13:59:56;;;;;;;;;;;;;;;34.62;20.29;99561.44;5298971;27;34537;-93
2022/05/12 14:02:32;;;;;;;;;;;;;;;34.94;20.31;99551.41;5307216;27;34782;-92
2022/05/12 14:05:02;;;;;;;;;;;;;;;34.36;20.22;99557.22;5314927;27;33495;-92
2022/05/12 14:07:33;;;;;;;;;;;;;;;33.74;21.39;99565.19;5344419;26;33231;-91
2022/05/12 14:10:17;;;;;;;;;;;;;;;33.68;21.65;99557.78;5355518;26;33842;-91
2022/05/12 14:21:18;;;;;;;;;;;;;;;32.94;23.15;99547.94;5334969;26;34236;-92
2022/05/12 14:23:49;;;;;;;;;;;;;;;32.88;23.61;99550.44;5361141;26;33233;-91
2022/05/12 14:26:18;;;;;;;;;;;;;;;32.94;24.14;99549.78;5356121;26;33571;-92
2022/05/12 14:28:46;;;;;;;;;;;;;;;33.14;23.91;99543.06;5355087;26;33862;-91
2022/05/12 14:31:15;;;;;;;;;;;;;;;33.09;22.61;99526.63;5356919;26;34718;-90
2022/05/12 14:33:44;;;;;;;;;;;;;;;33.13;22.87;99532.50;5356937;26;33505;-91
2022/05/12 14:36:12;;;;;;;;;;;;;;;33.04;23.05;99528.16;5362829;26;35441;-91
2022/05/12 14:38:40;;;;;;;;;;;;;;;33.02;23.45;99532.81;5356561;26;34915;-91
2022/05/12 14:41:11;;;;;;;;;;;;;;;32.99;23.07;99523.25;5357251;26;33792;-91
2022/05/12 14:43:39;;;;;;;;;;;;;;;32.87;23.50;99536.19;5357878;26;34824;-91
2022/05/12 14:46:07;;;;;;;;;;;;;;;32.73;23.66;99526.94;5337289;26;32668;-92
2022/05/12 14:48:37;;;;;;;;;;;;;;;32.69;24.01;99533.66;5366570;26;34200;-91
2022/05/12 14:51:05;;;;;;;;;;;;;;;32.57;24.38;99526.91;5357084;26;34098;-91
2022/05/12 14:53:35;;;;;;;;;;;;;;;32.54;24.64;99537.16;5355821;26;33843;-91
2022/05/12 14:56:04;;;;;;;;;;;;;;;32.56;24.48;99527.94;5357147;26;33149;-91
2022/05/12 14:58:34;;;;;;;;;;;;;;;32.35;24.39;99539.09;5355444;26;34853;-91
2022/05/12 15:01:05;;;;;;;;;;;;;;;32.10;24.41;99540.88;5355813;26;34862;-92
2022/05/12 15:03:36;;;;;;;;;;;;;;;31.89;24.54;99530.53;5362167;26;34406;-91
2022/05/12 15:06:07;;;;;;;;;;;;;;;31.94;23.81;99530.03;5357618;26;33143;-92
2022/05/12 15:08:36;;;;;;;;;;;;;;;31.91;23.69;99525.00;5358197;26;34912;-91
2022/05/12 15:11:07;;;;;;;;;;;;;;;31.66;24.58;99532.97;5356761;26;34360;-91
2022/05/12 15:13:37;;;;;;;;;;;;;;;31.65;24.58;99528.56;5357667;26;33439;-92
2022/05/12 15:16:06;;;;;;;;;;;;;;;31.83;24.41;99528.50;5363307;26;33728;-92
2022/05/12 15:18:35;;;;;;;;;;;;;;;32.02;23.73;99522.06;5356412;26;34869;-92
2022/05/12 15:21:04;;;;;;;;;;;;;;;31.91;24.19;99533.06;5356623;26;34244;-92
2022/05/12 15:23:33;;;;;;;;;;;;;;;32.29;23.67;99529.03;5335039;26;33990;-93
2022/05/12 15:26:09;;;;;;;;;;;;;;;32.42;23.54;99524.00;5356602;26;34148;-96
2022/05/12 15:28:43;;;;;;;;;;;;;;;32.70;23.66;99526.44;5338665;26;34225;-93
2022/05/12 15:31:11;;;;;;;;;;;;;;;33.17;22.63;99520.37;5362050;26;35080;-92
2022/05/12 15:33:41;;;;;;;;;;;;;;;33.28;22.50;99527.28;5336130;26;35131;-93
2022/05/12 15:36:09;;;;;;;;;;;;;;;33.75;21.50;99526.50;5358393;26;33919;-92
2022/05/12 15:44:31;;;;;;;;;;;;;;;35.10;20.39;99521.66;5387857;26;19979;-93
2022/05/12 15:47:01;;;;;;;;;;;;;;;35.29;19.97;99523.00;5408499;26;33341;-91
2022/05/12 15:49:30;;;;;;;;;;;;;;;35.35;20.09;99524.09;5403858;26;34184;-93
2022/05/12 15:52:00;;;;;;;;;;;;;;;35.17;20.38;99528.00;5382137;26;35643;-94
2022/05/12 15:54:28;;;;;;;;;;;;;;;34.90;20.07;99524.00;5404666;26;34104;-93
2022/05/12 15:56:57;;;;;;;;;;;;;;;35.25;20.28;99517.16;5410983;26;33930;-91
2022/05/12 15:59:25;;;;;;;;;;;;;;;35.36;19.93;99515.00;5403882;26;34595;-93
2022/05/12 16:01:56;;;;;;;;;;;;;;;35.46;19.62;99516.41;5403656;26;33757;-92
2022/05/12 16:04:28;;;;;;;;;;;;;;;35.71;20.04;99521.53;5406351;26;34330;-92
2022/05/12 16:06:56;;;;;;;;;;;;;;;35.76;19.61;99516.44;5405429;26;33460;-93
2022/05/12 16:09:31;;;;;;;;;;;;;;;35.34;19.76;99515.19;5407574;26;33899;-94